sensor_id;sensor_type;location;lat;lon;timestamp;temperature;humidity
17080;DHT22;8655;57.106;-2.088;2022-08-30T01:29:12;22.00;66.70
17080;DHT22;8655;57.106;-2.088;2022-08-30T03:19:26;21.60;65.90
17080;DHT22;8655;57.106;-2.088;2022-08-30T03:21:52;21.40;65.50
17080;DHT22;8655;57.106;-2.088;2022-08-30T03:24:19;21.40;65.50
17080;DHT22;8655;57.106;-2.088;2022-08-30T03:26:44;21.40;65.50
17080;DHT22;8655;57.106;-2.088;2022-08-30T03:29:10;21.40;65.50
17080;DHT22;8655;57.106;-2.088;2022-08-30T03:31:36;21.40;65.50
17080;DHT22;8655;57.106;-2.088;2022-08-30T03:34:03;21.40;65.50
17080;DHT22;8655;57.106;-2.088;2022-08-30T03:36:30;21.40;65.50
17080;DHT22;8655;57.106;-2.088;2022-08-30T03:38:56;21.40;65.50
17080;DHT22;8655;57.106;-2.088;2022-08-30T03:41:22;21.40;65.50
17080;DHT22;8655;57.106;-2.088;2022-08-30T03:43:49;21.40;65.40
17080;DHT22;8655;57.106;-2.088;2022-08-30T03:46:15;21.40;65.40
17080;DHT22;8655;57.106;-2.088;2022-08-30T03:48:40;21.40;65.50
17080;DHT22;8655;57.106;-2.088;2022-08-30T03:51:07;21.40;65.40
17080;DHT22;8655;57.106;-2.088;2022-08-30T03:53:33;21.40;65.40
17080;DHT22;8655;57.106;-2.088;2022-08-30T03:55:59;21.40;65.40
17080;DHT22;8655;57.106;-2.088;2022-08-30T03:58:24;21.30;65.30
17080;DHT22;8655;57.106;-2.088;2022-08-30T04:00:50;21.40;65.40
17080;DHT22;8655;57.106;-2.088;2022-08-30T04:03:16;21.40;65.40
17080;DHT22;8655;57.106;-2.088;2022-08-30T04:05:43;21.30;65.30
17080;DHT22;8655;57.106;-2.088;2022-08-30T04:08:09;21.30;65.30
17080;DHT22;8655;57.106;-2.088;2022-08-30T04:10:35;21.30;65.30
17080;DHT22;8655;57.106;-2.088;2022-08-30T04:13:01;21.30;65.30
17080;DHT22;8655;57.106;-2.088;2022-08-30T04:15:27;21.30;65.30
17080;DHT22;8655;57.106;-2.088;2022-08-30T04:17:52;21.30;65.30
17080;DHT22;8655;57.106;-2.088;2022-08-30T04:20:19;21.30;65.30
17080;DHT22;8655;57.106;-2.088;2022-08-30T04:22:45;21.30;66.00
17080;DHT22;8655;57.106;-2.088;2022-08-30T04:25:12;21.30;65.30
17080;DHT22;8655;57.106;-2.088;2022-08-30T04:27:37;21.30;65.30
17080;DHT22;8655;57.106;-2.088;2022-08-30T04:30:04;21.30;65.30
17080;DHT22;8655;57.106;-2.088;2022-08-30T04:32:30;21.30;65.30
17080;DHT22;8655;57.106;-2.088;2022-08-30T04:34:57;21.30;65.30
17080;DHT22;8655;57.106;-2.088;2022-08-30T04:37:23;21.30;65.30
17080;DHT22;8655;57.106;-2.088;2022-08-30T04:39:48;21.30;65.30
17080;DHT22;8655;57.106;-2.088;2022-08-30T04:42:15;21.30;65.30
17080;DHT22;8655;57.106;-2.088;2022-08-30T04:44:40;21.30;65.30
17080;DHT22;8655;57.106;-2.088;2022-08-30T04:47:06;21.30;65.30
17080;DHT22;8655;57.106;-2.088;2022-08-30T04:49:34;21.20;65.10
17080;DHT22;8655;57.106;-2.088;2022-08-30T04:52:00;21.30;65.30
17080;DHT22;8655;57.106;-2.088;2022-08-30T04:54:27;21.30;65.90
17080;DHT22;8655;57.106;-2.088;2022-08-30T04:56:53;21.20;65.10
17080;DHT22;8655;57.106;-2.088;2022-08-30T04:59:19;21.20;65.10
17080;DHT22;8655;57.106;-2.088;2022-08-30T05:01:44;21.20;65.10
17080;DHT22;8655;57.106;-2.088;2022-08-30T05:04:10;21.20;65.10
17080;DHT22;8655;57.106;-2.088;2022-08-30T05:06:36;21.20;65.10
17080;DHT22;8655;57.106;-2.088;2022-08-30T05:09:01;21.20;65.10
17080;DHT22;8655;57.106;-2.088;2022-08-30T05:11:27;21.20;65.10
17080;DHT22;8655;57.106;-2.088;2022-08-30T05:13:54;21.20;65.10
17080;DHT22;8655;57.106;-2.088;2022-08-30T05:16:19;21.20;65.10
17080;DHT22;8655;57.106;-2.088;2022-08-30T05:18:47;21.20;65.10
17080;DHT22;8655;57.106;-2.088;2022-08-30T05:21:15;21.20;65.10
17080;DHT22;8655;57.106;-2.088;2022-08-30T05:23:42;21.20;65.10
17080;DHT22;8655;57.106;-2.088;2022-08-30T05:26:11;21.20;65.10
17080;DHT22;8655;57.106;-2.088;2022-08-30T05:28:37;21.20;65.10
17080;DHT22;8655;57.106;-2.088;2022-08-30T05:31:21;21.20;65.10
17080;DHT22;8655;57.106;-2.088;2022-08-30T05:33:48;21.20;65.10
17080;DHT22;8655;57.106;-2.088;2022-08-30T05:36:15;21.20;65.10
17080;DHT22;8655;57.106;-2.088;2022-08-30T05:38:41;21.20;65.10
17080;DHT22;8655;57.106;-2.088;2022-08-30T05:41:07;21.20;65.10
17080;DHT22;8655;57.106;-2.088;2022-08-30T05:43:34;21.20;65.00
17080;DHT22;8655;57.106;-2.088;2022-08-30T05:46:02;21.20;65.10
17080;DHT22;8655;57.106;-2.088;2022-08-30T05:48:29;21.20;65.10
17080;DHT22;8655;57.106;-2.088;2022-08-30T05:51:10;21.10;65.00
17080;DHT22;8655;57.106;-2.088;2022-08-30T05:53:36;21.20;65.00
17080;DHT22;8655;57.106;-2.088;2022-08-30T05:56:05;21.20;65.00
17080;DHT22;8655;57.106;-2.088;2022-08-30T05:58:31;21.20;65.00
17080;DHT22;8655;57.106;-2.088;2022-08-30T06:00:58;21.20;65.00
17080;DHT22;8655;57.106;-2.088;2022-08-30T06:03:24;21.10;64.90
17080;DHT22;8655;57.106;-2.088;2022-08-30T06:05:50;21.10;64.90
17080;DHT22;8655;57.106;-2.088;2022-08-30T06:08:16;21.10;64.90
17080;DHT22;8655;57.106;-2.088;2022-08-30T06:10:42;21.10;64.90
17080;DHT22;8655;57.106;-2.088;2022-08-30T06:13:08;21.10;64.90
17080;DHT22;8655;57.106;-2.088;2022-08-30T06:15:34;21.10;64.90
17080;DHT22;8655;57.106;-2.088;2022-08-30T06:18:00;21.10;64.90
17080;DHT22;8655;57.106;-2.088;2022-08-30T06:20:25;21.10;64.90
17080;DHT22;8655;57.106;-2.088;2022-08-30T06:22:51;21.10;64.80
17080;DHT22;8655;57.106;-2.088;2022-08-30T06:25:17;21.10;64.90
17080;DHT22;8655;57.106;-2.088;2022-08-30T06:27:43;21.10;64.80
17080;DHT22;8655;57.106;-2.088;2022-08-30T06:30:09;21.10;64.80
17080;DHT22;8655;57.106;-2.088;2022-08-30T06:32:36;21.10;64.80
17080;DHT22;8655;57.106;-2.088;2022-08-30T06:35:04;21.10;64.80
17080;DHT22;8655;57.106;-2.088;2022-08-30T06:37:31;21.10;64.80
17080;DHT22;8655;57.106;-2.088;2022-08-30T06:39:58;21.10;64.90
17080;DHT22;8655;57.106;-2.088;2022-08-30T06:42:25;21.10;64.80
17080;DHT22;8655;57.106;-2.088;2022-08-30T06:44:57;21.10;64.80
17080;DHT22;8655;57.106;-2.088;2022-08-30T06:47:22;21.10;64.80
17080;DHT22;8655;57.106;-2.088;2022-08-30T06:49:48;21.10;64.80
17080;DHT22;8655;57.106;-2.088;2022-08-30T06:52:14;21.10;64.80
17080;DHT22;8655;57.106;-2.088;2022-08-30T06:54:40;21.00;64.70
17080;DHT22;8655;57.106;-2.088;2022-08-30T06:57:05;21.10;64.80
17080;DHT22;8655;57.106;-2.088;2022-08-30T06:59:31;21.10;64.80
17080;DHT22;8655;57.106;-2.088;2022-08-30T07:01:57;21.10;64.80
17080;DHT22;8655;57.106;-2.088;2022-08-30T07:04:24;21.00;64.60
17080;DHT22;8655;57.106;-2.088;2022-08-30T07:06:50;21.00;64.60
17080;DHT22;8655;57.106;-2.088;2022-08-30T07:09:15;21.00;64.60
17080;DHT22;8655;57.106;-2.088;2022-08-30T07:11:41;21.00;64.70
17080;DHT22;8655;57.106;-2.088;2022-08-30T07:14:08;21.00;64.70
17080;DHT22;8655;57.106;-2.088;2022-08-30T07:16:34;21.00;64.60
17080;DHT22;8655;57.106;-2.088;2022-08-30T07:19:00;21.00;64.60
17080;DHT22;8655;57.106;-2.088;2022-08-30T07:21:28;21.00;64.60
17080;DHT22;8655;57.106;-2.088;2022-08-30T07:23:57;21.00;64.60
17080;DHT22;8655;57.106;-2.088;2022-08-30T07:26:34;21.00;64.60
17080;DHT22;8655;57.106;-2.088;2022-08-30T07:29:01;21.00;64.60
17080;DHT22;8655;57.106;-2.088;2022-08-30T07:31:27;21.00;64.60
17080;DHT22;8655;57.106;-2.088;2022-08-30T07:33:54;21.00;64.60
17080;DHT22;8655;57.106;-2.088;2022-08-30T07:36:20;21.00;64.60
17080;DHT22;8655;57.106;-2.088;2022-08-30T07:38:50;21.00;64.60
17080;DHT22;8655;57.106;-2.088;2022-08-30T07:41:20;21.00;64.60
17080;DHT22;8655;57.106;-2.088;2022-08-30T07:43:46;21.00;64.60
17080;DHT22;8655;57.106;-2.088;2022-08-30T07:46:12;21.00;64.60
17080;DHT22;8655;57.106;-2.088;2022-08-30T07:48:38;21.00;64.60
17080;DHT22;8655;57.106;-2.088;2022-08-30T07:51:08;21.00;64.50
17080;DHT22;8655;57.106;-2.088;2022-08-30T07:53:34;21.00;64.50
17080;DHT22;8655;57.106;-2.088;2022-08-30T07:56:00;21.00;64.60
17080;DHT22;8655;57.106;-2.088;2022-08-30T07:58:26;21.00;64.50
17080;DHT22;8655;57.106;-2.088;2022-08-30T08:00:52;21.00;64.50
17080;DHT22;8655;57.106;-2.088;2022-08-30T08:03:17;21.00;64.50
17080;DHT22;8655;57.106;-2.088;2022-08-30T08:05:44;21.00;64.50
17080;DHT22;8655;57.106;-2.088;2022-08-30T08:08:11;21.00;64.50
17080;DHT22;8655;57.106;-2.088;2022-08-30T08:10:39;21.00;64.50
17080;DHT22;8655;57.106;-2.088;2022-08-30T08:13:05;21.00;64.50
17080;DHT22;8655;57.106;-2.088;2022-08-30T08:15:31;21.00;64.50
17080;DHT22;8655;57.106;-2.088;2022-08-30T08:17:58;21.00;64.40
17080;DHT22;8655;57.106;-2.088;2022-08-30T08:20:23;21.00;64.50
17080;DHT22;8655;57.106;-2.088;2022-08-30T08:22:51;20.90;63.80
17080;DHT22;8655;57.106;-2.088;2022-08-30T08:25:17;20.90;64.30
17080;DHT22;8655;57.106;-2.088;2022-08-30T08:27:46;21.00;64.40
17080;DHT22;8655;57.106;-2.088;2022-08-30T08:30:12;21.00;64.40
17080;DHT22;8655;57.106;-2.088;2022-08-30T08:32:38;21.00;64.40
17080;DHT22;8655;57.106;-2.088;2022-08-30T08:35:04;20.90;64.30
17080;DHT22;8655;57.106;-2.088;2022-08-30T08:37:30;21.00;64.40
17080;DHT22;8655;57.106;-2.088;2022-08-30T08:39:56;20.90;64.30
17080;DHT22;8655;57.106;-2.088;2022-08-30T08:45:10;20.90;64.20
17080;DHT22;8655;57.106;-2.088;2022-08-30T08:50:19;20.90;64.20
17080;DHT22;8655;57.106;-2.088;2022-08-30T08:53:06;20.90;64.20
17080;DHT22;8655;57.106;-2.088;2022-08-30T08:55:53;20.90;64.20
17080;DHT22;8655;57.106;-2.088;2022-08-30T08:58:24;20.90;64.20
17080;DHT22;8655;57.106;-2.088;2022-08-30T09:00:52;20.90;64.20
17080;DHT22;8655;57.106;-2.088;2022-08-30T09:03:20;20.90;64.20
17080;DHT22;8655;57.106;-2.088;2022-08-30T09:05:47;20.90;64.20
17080;DHT22;8655;57.106;-2.088;2022-08-30T09:08:16;20.90;64.20
17080;DHT22;8655;57.106;-2.088;2022-08-30T09:10:58;20.90;64.10
17080;DHT22;8655;57.106;-2.088;2022-08-30T09:13:25;20.90;64.10
17080;DHT22;8655;57.106;-2.088;2022-08-30T09:15:53;20.90;64.10
17080;DHT22;8655;57.106;-2.088;2022-08-30T09:18:19;20.90;64.10
17080;DHT22;8655;57.106;-2.088;2022-08-30T09:21:05;20.90;64.10
17080;DHT22;8655;57.106;-2.088;2022-08-30T09:23:31;20.90;64.10
17080;DHT22;8655;57.106;-2.088;2022-08-30T09:26:05;20.90;64.10
17080;DHT22;8655;57.106;-2.088;2022-08-30T09:28:43;20.90;64.10
17080;DHT22;8655;57.106;-2.088;2022-08-30T09:34:01;20.90;64.10
17080;DHT22;8655;57.106;-2.088;2022-08-30T09:36:33;20.90;64.00
17080;DHT22;8655;57.106;-2.088;2022-08-30T09:39:04;20.90;64.10
17080;DHT22;8655;57.106;-2.088;2022-08-30T09:41:37;20.90;64.10
17080;DHT22;8655;57.106;-2.088;2022-08-30T10:00:19;20.90;63.90
17080;DHT22;8655;57.106;-2.088;2022-08-30T10:02:56;20.90;64.00
17080;DHT22;8655;57.106;-2.088;2022-08-30T10:10:39;20.90;63.90
17080;DHT22;8655;57.106;-2.088;2022-08-30T10:18:42;20.80;63.80
17080;DHT22;8655;57.106;-2.088;2022-08-30T10:21:25;20.90;63.90
17080;DHT22;8655;57.106;-2.088;2022-08-30T10:24:00;20.90;63.80
17080;DHT22;8655;57.106;-2.088;2022-08-30T10:26:37;20.90;63.90
17080;DHT22;8655;57.106;-2.088;2022-08-30T10:29:12;20.80;63.70
17080;DHT22;8655;57.106;-2.088;2022-08-30T10:31:53;20.90;63.80
17080;DHT22;8655;57.106;-2.088;2022-08-30T10:37:02;20.90;63.80
17080;DHT22;8655;57.106;-2.088;2022-08-30T10:39:34;20.90;63.80
17080;DHT22;8655;57.106;-2.088;2022-08-30T10:42:21;20.90;63.80
17080;DHT22;8655;57.106;-2.088;2022-08-30T10:45:10;20.90;63.80
17080;DHT22;8655;57.106;-2.088;2022-08-30T10:47:55;20.90;63.80
17080;DHT22;8655;57.106;-2.088;2022-08-30T10:50:36;20.80;63.70
17080;DHT22;8655;57.106;-2.088;2022-08-30T10:53:36;20.80;63.70
17080;DHT22;8655;57.106;-2.088;2022-08-30T10:56:13;20.90;63.80
17080;DHT22;8655;57.106;-2.088;2022-08-30T10:58:40;20.90;63.80
17080;DHT22;8655;57.106;-2.088;2022-08-30T11:13:09;20.90;63.80
17080;DHT22;8655;57.106;-2.088;2022-08-30T11:16:00;20.90;63.80
17080;DHT22;8655;57.106;-2.088;2022-08-30T11:18:48;20.80;63.60
17080;DHT22;8655;57.106;-2.088;2022-08-30T11:21:22;20.80;63.70
17080;DHT22;8655;57.106;-2.088;2022-08-30T11:37:40;20.90;63.70
17080;DHT22;8655;57.106;-2.088;2022-08-30T11:42:54;20.80;63.70
17080;DHT22;8655;57.106;-2.088;2022-08-30T11:47:57;20.80;63.60
17080;DHT22;8655;57.106;-2.088;2022-08-30T11:58:35;20.80;63.50
17080;DHT22;8655;57.106;-2.088;2022-08-30T12:01:34;20.90;63.60
17080;DHT22;8655;57.106;-2.088;2022-08-30T12:20:04;20.90;63.60
17080;DHT22;8655;57.106;-2.088;2022-08-30T12:22:30;20.90;63.60
17080;DHT22;8655;57.106;-2.088;2022-08-30T12:25:31;20.90;63.70
17080;DHT22;8655;57.106;-2.088;2022-08-30T12:28:22;20.90;63.60
17080;DHT22;8655;57.106;-2.088;2022-08-30T12:30:49;20.90;63.60
17080;DHT22;8655;57.106;-2.088;2022-08-30T12:33:27;20.90;63.60
17080;DHT22;8655;57.106;-2.088;2022-08-30T12:35:57;20.80;63.50
17080;DHT22;8655;57.106;-2.088;2022-08-30T12:38:24;20.90;63.70
17080;DHT22;8655;57.106;-2.088;2022-08-30T12:40:56;20.90;63.60
17080;DHT22;8655;57.106;-2.088;2022-08-30T12:43:31;20.90;63.60
17080;DHT22;8655;57.106;-2.088;2022-08-30T12:46:00;20.90;63.60
17080;DHT22;8655;57.106;-2.088;2022-08-30T12:48:28;20.90;63.60
17080;DHT22;8655;57.106;-2.088;2022-08-30T12:50:58;20.90;63.60
17080;DHT22;8655;57.106;-2.088;2022-08-30T12:53:36;20.90;63.60
17080;DHT22;8655;57.106;-2.088;2022-08-30T12:56:10;20.90;63.60
17080;DHT22;8655;57.106;-2.088;2022-08-30T13:01:25;20.90;63.50
17080;DHT22;8655;57.106;-2.088;2022-08-30T13:06:37;20.90;63.50
17080;DHT22;8655;57.106;-2.088;2022-08-30T13:09:03;20.90;63.60
17080;DHT22;8655;57.106;-2.088;2022-08-30T13:11:29;20.90;63.50
17080;DHT22;8655;57.106;-2.088;2022-08-30T13:14:17;20.90;63.50
17080;DHT22;8655;57.106;-2.088;2022-08-30T13:16:42;20.90;63.50
17080;DHT22;8655;57.106;-2.088;2022-08-30T13:21:54;20.90;63.50
17080;DHT22;8655;57.106;-2.088;2022-08-30T13:24:20;20.90;63.50
17080;DHT22;8655;57.106;-2.088;2022-08-30T13:26:47;20.90;63.50
17080;DHT22;8655;57.106;-2.088;2022-08-30T13:29:20;20.90;63.50
17080;DHT22;8655;57.106;-2.088;2022-08-30T13:31:46;20.90;63.50
17080;DHT22;8655;57.106;-2.088;2022-08-30T13:34:12;20.90;63.50
17080;DHT22;8655;57.106;-2.088;2022-08-30T13:36:45;20.90;63.50
17080;DHT22;8655;57.106;-2.088;2022-08-30T13:39:11;20.90;63.50
17080;DHT22;8655;57.106;-2.088;2022-08-30T13:41:37;20.90;63.50
17080;DHT22;8655;57.106;-2.088;2022-08-30T13:44:03;20.90;63.50
17080;DHT22;8655;57.106;-2.088;2022-08-30T13:46:29;20.90;63.50
17080;DHT22;8655;57.106;-2.088;2022-08-30T13:49:05;20.90;63.50
17080;DHT22;8655;57.106;-2.088;2022-08-30T13:51:31;20.90;63.50
17080;DHT22;8655;57.106;-2.088;2022-08-30T13:53:57;20.90;63.40
17080;DHT22;8655;57.106;-2.088;2022-08-30T13:56:27;20.90;63.50
17080;DHT22;8655;57.106;-2.088;2022-08-30T13:58:57;20.90;63.50
17080;DHT22;8655;57.106;-2.088;2022-08-30T14:01:23;20.90;63.40
17080;DHT22;8655;57.106;-2.088;2022-08-30T14:03:49;20.90;63.50
17080;DHT22;8655;57.106;-2.088;2022-08-30T14:06:14;20.90;63.50
17080;DHT22;8655;57.106;-2.088;2022-08-30T14:08:40;20.90;63.40
17080;DHT22;8655;57.106;-2.088;2022-08-30T14:11:06;20.90;63.40
17080;DHT22;8655;57.106;-2.088;2022-08-30T14:13:33;20.90;63.40
17080;DHT22;8655;57.106;-2.088;2022-08-30T14:16:00;20.90;63.50
17080;DHT22;8655;57.106;-2.088;2022-08-30T14:18:28;20.90;63.50
17080;DHT22;8655;57.106;-2.088;2022-08-30T14:20:54;20.90;63.40
17080;DHT22;8655;57.106;-2.088;2022-08-30T14:23:21;20.90;63.40
17080;DHT22;8655;57.106;-2.088;2022-08-30T14:25:46;20.90;63.40
17080;DHT22;8655;57.106;-2.088;2022-08-30T14:28:12;20.90;63.40
17080;DHT22;8655;57.106;-2.088;2022-08-30T14:30:38;20.90;63.40
17080;DHT22;8655;57.106;-2.088;2022-08-30T14:33:04;20.90;63.40
17080;DHT22;8655;57.106;-2.088;2022-08-30T14:35:29;20.90;63.40
17080;DHT22;8655;57.106;-2.088;2022-08-30T14:37:55;20.90;63.40
17080;DHT22;8655;57.106;-2.088;2022-08-30T14:40:21;20.90;63.40
17080;DHT22;8655;57.106;-2.088;2022-08-30T14:42:47;20.90;63.40
17080;DHT22;8655;57.106;-2.088;2022-08-30T14:45:13;20.90;63.40
17080;DHT22;8655;57.106;-2.088;2022-08-30T14:47:39;20.90;63.40
17080;DHT22;8655;57.106;-2.088;2022-08-30T14:50:05;20.90;63.40
17080;DHT22;8655;57.106;-2.088;2022-08-30T14:52:31;21.00;63.40
17080;DHT22;8655;57.106;-2.088;2022-08-30T14:54:58;21.00;63.40
17080;DHT22;8655;57.106;-2.088;2022-08-30T14:57:24;21.00;63.50
17080;DHT22;8655;57.106;-2.088;2022-08-30T14:59:50;21.00;63.40
17080;DHT22;8655;57.106;-2.088;2022-08-30T15:02:17;21.00;63.40
17080;DHT22;8655;57.106;-2.088;2022-08-30T15:04:42;21.00;63.40
17080;DHT22;8655;57.106;-2.088;2022-08-30T15:07:08;21.00;63.40
17080;DHT22;8655;57.106;-2.088;2022-08-30T15:09:34;21.00;63.50
17080;DHT22;8655;57.106;-2.088;2022-08-30T15:12:00;21.00;63.50
17080;DHT22;8655;57.106;-2.088;2022-08-30T15:14:28;20.90;63.30
17080;DHT22;8655;57.106;-2.088;2022-08-30T15:16:57;20.90;63.30
17080;DHT22;8655;57.106;-2.088;2022-08-30T15:19:23;21.00;63.40
17080;DHT22;8655;57.106;-2.088;2022-08-30T15:21:49;21.00;63.40
17080;DHT22;8655;57.106;-2.088;2022-08-30T15:24:19;21.00;63.40
17080;DHT22;8655;57.106;-2.088;2022-08-30T15:26:45;21.00;63.40
17080;DHT22;8655;57.106;-2.088;2022-08-30T15:29:13;20.90;63.30
17080;DHT22;8655;57.106;-2.088;2022-08-30T15:31:39;21.00;63.40
17080;DHT22;8655;57.106;-2.088;2022-08-30T15:34:06;21.00;63.40
17080;DHT22;8655;57.106;-2.088;2022-08-30T15:36:32;21.00;63.40
17080;DHT22;8655;57.106;-2.088;2022-08-30T15:38:58;21.00;63.30
17080;DHT22;8655;57.106;-2.088;2022-08-30T15:41:25;20.90;63.20
17080;DHT22;8655;57.106;-2.088;2022-08-30T15:43:51;21.00;63.30
17080;DHT22;8655;57.106;-2.088;2022-08-30T15:48:52;20.90;63.20
17080;DHT22;8655;57.106;-2.088;2022-08-30T15:51:22;20.90;63.20
17080;DHT22;8655;57.106;-2.088;2022-08-30T15:53:50;21.00;63.30
17080;DHT22;8655;57.106;-2.088;2022-08-30T15:56:17;20.90;63.20
17080;DHT22;8655;57.106;-2.088;2022-08-30T15:58:43;21.00;63.30
17080;DHT22;8655;57.106;-2.088;2022-08-30T16:01:10;20.90;63.20
17080;DHT22;8655;57.106;-2.088;2022-08-30T16:03:36;21.00;63.30
17080;DHT22;8655;57.106;-2.088;2022-08-30T16:06:12;21.00;63.30
17080;DHT22;8655;57.106;-2.088;2022-08-30T16:08:39;20.90;63.20
17080;DHT22;8655;57.106;-2.088;2022-08-30T16:11:10;21.00;63.30
17080;DHT22;8655;57.106;-2.088;2022-08-30T16:13:36;20.90;63.20
17080;DHT22;8655;57.106;-2.088;2022-08-30T16:16:03;21.00;63.30
17080;DHT22;8655;57.106;-2.088;2022-08-30T16:18:29;21.00;63.30
17080;DHT22;8655;57.106;-2.088;2022-08-30T16:21:07;20.90;63.20
17080;DHT22;8655;57.106;-2.088;2022-08-30T16:23:35;21.00;63.30
17080;DHT22;8655;57.106;-2.088;2022-08-30T16:26:01;21.00;63.30
17080;DHT22;8655;57.106;-2.088;2022-08-30T16:28:26;21.00;63.30
17080;DHT22;8655;57.106;-2.088;2022-08-30T16:30:53;20.90;63.20
17080;DHT22;8655;57.106;-2.088;2022-08-30T16:33:19;21.00;63.30
17080;DHT22;8655;57.106;-2.088;2022-08-30T16:35:47;21.00;63.30
17080;DHT22;8655;57.106;-2.088;2022-08-30T16:38:13;21.00;63.30
17080;DHT22;8655;57.106;-2.088;2022-08-30T16:40:42;21.00;63.30
17080;DHT22;8655;57.106;-2.088;2022-08-30T16:43:08;21.00;63.30
17080;DHT22;8655;57.106;-2.088;2022-08-30T16:45:36;21.00;63.30
17080;DHT22;8655;57.106;-2.088;2022-08-30T16:48:03;21.00;63.30
17080;DHT22;8655;57.106;-2.088;2022-08-30T16:50:29;21.00;63.30
17080;DHT22;8655;57.106;-2.088;2022-08-30T16:52:55;21.00;63.30
17080;DHT22;8655;57.106;-2.088;2022-08-30T16:55:21;21.00;63.30
17080;DHT22;8655;57.106;-2.088;2022-08-30T16:57:47;21.00;63.30
17080;DHT22;8655;57.106;-2.088;2022-08-30T17:00:13;21.00;63.30
17080;DHT22;8655;57.106;-2.088;2022-08-30T17:02:40;21.00;64.00
17080;DHT22;8655;57.106;-2.088;2022-08-30T17:05:06;20.90;63.20
17080;DHT22;8655;57.106;-2.088;2022-08-30T17:07:33;21.00;63.30
17080;DHT22;8655;57.106;-2.088;2022-08-30T17:09:58;20.90;63.20
17080;DHT22;8655;57.106;-2.088;2022-08-30T17:12:24;21.00;63.20
17080;DHT22;8655;57.106;-2.088;2022-08-30T17:14:51;21.00;63.30
17080;DHT22;8655;57.106;-2.088;2022-08-30T17:17:17;21.00;63.30
17080;DHT22;8655;57.106;-2.088;2022-08-30T17:19:43;21.00;63.30
17080;DHT22;8655;57.106;-2.088;2022-08-30T17:22:10;20.90;63.20
17080;DHT22;8655;57.106;-2.088;2022-08-30T17:24:39;20.90;63.10
17080;DHT22;8655;57.106;-2.088;2022-08-30T17:27:05;21.00;63.30
17080;DHT22;8655;57.106;-2.088;2022-08-30T17:29:32;20.90;63.10
17080;DHT22;8655;57.106;-2.088;2022-08-30T17:31:58;21.00;63.20
17080;DHT22;8655;57.106;-2.088;2022-08-30T17:34:25;20.90;63.80
17080;DHT22;8655;57.106;-2.088;2022-08-30T17:36:51;21.00;63.30
17080;DHT22;8655;57.106;-2.088;2022-08-30T17:39:19;21.00;63.30
17080;DHT22;8655;57.106;-2.088;2022-08-30T17:41:46;20.90;63.10
17080;DHT22;8655;57.106;-2.088;2022-08-30T17:44:12;21.00;63.30
17080;DHT22;8655;57.106;-2.088;2022-08-30T17:46:38;20.90;63.20
17080;DHT22;8655;57.106;-2.088;2022-08-30T17:49:04;21.00;63.20
17080;DHT22;8655;57.106;-2.088;2022-08-30T17:51:30;21.00;63.20
17080;DHT22;8655;57.106;-2.088;2022-08-30T17:53:56;21.00;63.30
17080;DHT22;8655;57.106;-2.088;2022-08-30T17:56:22;21.00;63.30
17080;DHT22;8655;57.106;-2.088;2022-08-30T17:58:48;20.90;63.20
17080;DHT22;8655;57.106;-2.088;2022-08-30T18:01:18;21.00;63.30
17080;DHT22;8655;57.106;-2.088;2022-08-30T18:03:44;20.90;63.10
17080;DHT22;8655;57.106;-2.088;2022-08-30T18:06:10;21.00;63.20
17080;DHT22;8655;57.106;-2.088;2022-08-30T18:08:36;21.00;63.20
17080;DHT22;8655;57.106;-2.088;2022-08-30T18:11:03;21.00;63.20
17080;DHT22;8655;57.106;-2.088;2022-08-30T18:13:29;21.00;63.20
17080;DHT22;8655;57.106;-2.088;2022-08-30T18:15:55;21.00;63.20
17080;DHT22;8655;57.106;-2.088;2022-08-30T18:18:21;21.00;63.20
17080;DHT22;8655;57.106;-2.088;2022-08-30T18:20:47;21.00;63.20
17080;DHT22;8655;57.106;-2.088;2022-08-30T18:23:13;20.90;63.20
17080;DHT22;8655;57.106;-2.088;2022-08-30T18:25:39;20.90;63.10
17080;DHT22;8655;57.106;-2.088;2022-08-30T18:28:05;20.90;63.10
17080;DHT22;8655;57.106;-2.088;2022-08-30T18:30:32;20.90;63.20
17080;DHT22;8655;57.106;-2.088;2022-08-30T18:32:57;20.90;63.10
17080;DHT22;8655;57.106;-2.088;2022-08-30T18:35:23;21.00;63.20
17080;DHT22;8655;57.106;-2.088;2022-08-30T18:37:50;20.90;63.10
17080;DHT22;8655;57.106;-2.088;2022-08-30T18:40:15;20.90;63.10
17080;DHT22;8655;57.106;-2.088;2022-08-30T18:42:41;21.00;63.20
17080;DHT22;8655;57.106;-2.088;2022-08-30T18:45:08;20.90;63.10
17080;DHT22;8655;57.106;-2.088;2022-08-30T18:47:34;20.90;63.10
17080;DHT22;8655;57.106;-2.088;2022-08-30T18:50:02;20.90;63.10
17080;DHT22;8655;57.106;-2.088;2022-08-30T18:52:28;20.90;63.10
17080;DHT22;8655;57.106;-2.088;2022-08-30T18:54:54;20.90;63.10
17080;DHT22;8655;57.106;-2.088;2022-08-30T18:57:20;20.90;63.10
17080;DHT22;8655;57.106;-2.088;2022-08-30T18:59:46;20.90;63.10
17080;DHT22;8655;57.106;-2.088;2022-08-30T19:02:14;20.90;63.10
17080;DHT22;8655;57.106;-2.088;2022-08-30T19:04:41;20.90;63.10
17080;DHT22;8655;57.106;-2.088;2022-08-30T19:07:08;20.90;63.10
17080;DHT22;8655;57.106;-2.088;2022-08-30T19:09:35;20.90;63.10
17080;DHT22;8655;57.106;-2.088;2022-08-30T19:12:02;20.90;63.10
17080;DHT22;8655;57.106;-2.088;2022-08-30T19:14:28;20.90;63.10
17080;DHT22;8655;57.106;-2.088;2022-08-30T19:16:54;20.90;63.10
17080;DHT22;8655;57.106;-2.088;2022-08-30T19:19:21;20.90;63.10
17080;DHT22;8655;57.106;-2.088;2022-08-30T19:21:47;20.90;63.10
17080;DHT22;8655;57.106;-2.088;2022-08-30T19:24:13;20.90;63.10
17080;DHT22;8655;57.106;-2.088;2022-08-30T19:26:38;20.90;63.10
17080;DHT22;8655;57.106;-2.088;2022-08-30T19:29:07;20.90;63.10
17080;DHT22;8655;57.106;-2.088;2022-08-30T19:31:33;20.90;63.00
17080;DHT22;8655;57.106;-2.088;2022-08-30T19:33:59;20.90;63.10
17080;DHT22;8655;57.106;-2.088;2022-08-30T19:36:24;20.90;63.10
17080;DHT22;8655;57.106;-2.088;2022-08-30T19:38:50;20.90;63.10
17080;DHT22;8655;57.106;-2.088;2022-08-30T19:41:16;20.90;63.00
17080;DHT22;8655;57.106;-2.088;2022-08-30T19:43:42;20.90;63.00
17080;DHT22;8655;57.106;-2.088;2022-08-30T19:46:08;20.90;63.00
17080;DHT22;8655;57.106;-2.088;2022-08-30T19:48:34;20.90;63.00
17080;DHT22;8655;57.106;-2.088;2022-08-30T19:51:11;20.90;63.00
17080;DHT22;8655;57.106;-2.088;2022-08-30T19:53:37;20.90;63.00
17080;DHT22;8655;57.106;-2.088;2022-08-30T19:56:03;20.90;63.00
17080;DHT22;8655;57.106;-2.088;2022-08-30T19:58:28;20.90;63.00
17080;DHT22;8655;57.106;-2.088;2022-08-30T20:00:54;20.90;63.00
17080;DHT22;8655;57.106;-2.088;2022-08-30T20:03:20;20.90;63.00
17080;DHT22;8655;57.106;-2.088;2022-08-30T20:05:46;20.90;63.00
17080;DHT22;8655;57.106;-2.088;2022-08-30T20:08:12;20.90;63.00
17080;DHT22;8655;57.106;-2.088;2022-08-30T20:10:38;20.80;62.90
17080;DHT22;8655;57.106;-2.088;2022-08-30T20:13:06;20.80;62.90
17080;DHT22;8655;57.106;-2.088;2022-08-30T20:15:35;20.80;62.90
17080;DHT22;8655;57.106;-2.088;2022-08-30T20:18:04;20.80;62.90
17080;DHT22;8655;57.106;-2.088;2022-08-30T20:20:33;20.90;63.00
17080;DHT22;8655;57.106;-2.088;2022-08-30T20:22:59;20.80;62.90
17080;DHT22;8655;57.106;-2.088;2022-08-30T20:25:25;20.80;62.90
17080;DHT22;8655;57.106;-2.088;2022-08-30T20:27:50;20.80;62.90
17080;DHT22;8655;57.106;-2.088;2022-08-30T20:30:17;20.80;62.90
17080;DHT22;8655;57.106;-2.088;2022-08-30T20:32:43;20.90;62.90
17080;DHT22;8655;57.106;-2.088;2022-08-30T20:35:12;20.90;63.00